Time;durP1;ratioP1;P1;durP2;ratioP2;P2;SDS_P1;SDS_P2;PMS_P1;PMS_P2;Temp;Humidity;BMP_temperature;BMP_pressure;BME280_temperature;BME280_humidity;BME280_pressure;Samples;Min_cycle;Max_cycle;Signal;HPM_P1;HPM_P2
2024/04/16 00:01:25;;;;;;;9.77;4.68;;;;;;;;;;5562204;25;20033;-61
2024/04/16 00:03:51;;;;;;;10.50;4.03;;;;;;;;;;5569495;25;20024;-61
2024/04/16 00:06:23;;;;;;;9.40;3.92;;;;;;;;;;5577630;25;20029;-61
2024/04/16 00:08:50;;;;;;;8.50;3.50;;;;;;;;;;5566883;25;20025;-61
2024/04/16 00:11:19;;;;;;;7.97;3.67;;;;;;;;;;5565680;25;20021;-61
2024/04/16 00:13:45;;;;;;;8.60;3.72;;;;;;;;;;5563018;25;20020;-61
2024/04/16 00:16:14;;;;;;;7.15;3.58;;;;;;;;;;5555571;25;20025;-61
2024/04/16 00:18:40;;;;;;;7.83;3.37;;;;;;;;;;5578851;25;20462;-61
2024/04/16 00:21:09;;;;;;;11.48;2.75;;;;;;;;;;5569020;25;20029;-60
2024/04/16 00:23:37;;;;;;;8.05;2.53;;;;;;;;;;5564989;25;20024;-61
2024/04/16 00:26:06;;;;;;;6.95;2.85;;;;;;;;;;5566139;25;20051;-61
2024/04/16 00:28:32;;;;;;;6.38;3.15;;;;;;;;;;5565588;25;20036;-61
2024/04/16 00:31:01;;;;;;;5.85;2.88;;;;;;;;;;5563597;25;20032;-61
2024/04/16 00:33:27;;;;;;;6.82;2.58;;;;;;;;;;5578253;25;20493;-60
2024/04/16 00:35:56;;;;;;;7.72;2.88;;;;;;;;;;5552709;25;20044;-60
2024/04/16 00:38:23;;;;;;;6.88;3.33;;;;;;;;;;5564940;25;20028;-60
2024/04/16 00:40:54;;;;;;;7.70;2.72;;;;;;;;;;5548940;25;20036;-60
2024/04/16 00:43:22;;;;;;;7.38;3.28;;;;;;;;;;5569300;25;20028;-61
2024/04/16 00:45:52;;;;;;;5.97;2.95;;;;;;;;;;5561048;25;20028;-61
2024/04/16 00:48:20;;;;;;;7.65;3.53;;;;;;;;;;5581412;25;20024;-61
2024/04/16 00:50:49;;;;;;;8.27;3.45;;;;;;;;;;5556956;25;20369;-60
2024/04/16 00:53:15;;;;;;;7.63;3.15;;;;;;;;;;5575891;25;20385;-61
2024/04/16 00:55:45;;;;;;;9.52;3.00;;;;;;;;;;5566078;25;20032;-61
2024/04/16 00:58:16;;;;;;;7.95;3.65;;;;;;;;;;5602226;25;20032;-61
2024/04/16 01:00:44;;;;;;;7.30;2.50;;;;;;;;;;5582002;25;20024;-61
2024/04/16 01:03:10;;;;;;;7.20;3.13;;;;;;;;;;5592763;25;20029;-61
2024/04/16 01:05:40;;;;;;;6.05;2.67;;;;;;;;;;5581653;25;20036;-61
2024/04/16 01:08:07;;;;;;;7.35;2.53;;;;;;;;;;5586611;25;20033;-61
2024/04/16 01:10:40;;;;;;;8.02;2.38;;;;;;;;;;5601683;25;20385;-61
2024/04/16 01:13:06;;;;;;;5.43;2.50;;;;;;;;;;5601980;25;20393;-61
2024/04/16 01:15:37;;;;;;;6.72;2.55;;;;;;;;;;5585965;25;20039;-61
2024/04/16 01:18:06;;;;;;;7.97;2.10;;;;;;;;;;5594840;25;20372;-62
2024/04/16 01:20:35;;;;;;;8.23;2.45;;;;;;;;;;5566681;25;20032;-62
2024/04/16 01:23:04;;;;;;;6.78;2.78;;;;;;;;;;5595215;25;20031;-62
2024/04/16 01:25:34;;;;;;;5.75;2.20;;;;;;;;;;5586770;25;20474;-62
2024/04/16 01:28:00;;;;;;;8.68;2.53;;;;;;;;;;5602445;25;20375;-62
2024/04/16 01:30:29;;;;;;;6.25;2.72;;;;;;;;;;5568933;25;20027;-62
2024/04/16 01:32:55;;;;;;;5.65;2.25;;;;;;;;;;5564409;25;20032;-62
2024/04/16 01:35:24;;;;;;;7.57;2.28;;;;;;;;;;5547982;25;20033;-62
2024/04/16 01:37:50;;;;;;;8.60;2.78;;;;;;;;;;5564256;25;20044;-62
2024/04/16 01:40:21;;;;;;;5.95;2.00;;;;;;;;;;5556623;25;20024;-62
2024/04/16 01:42:47;;;;;;;4.28;2.33;;;;;;;;;;5572304;25;20037;-63
2024/04/16 01:45:16;;;;;;;4.40;2.30;;;;;;;;;;5585702;25;20024;-62
2024/04/16 01:47:42;;;;;;;6.45;2.20;;;;;;;;;;5593084;25;20037;-62
2024/04/16 01:50:11;;;;;;;8.25;2.58;;;;;;;;;;5571759;25;20072;-63
2024/04/16 01:52:37;;;;;;;7.43;2.58;;;;;;;;;;5573110;25;20024;-62
2024/04/16 01:55:06;;;;;;;6.43;2.42;;;;;;;;;;5557444;25;20036;-63
2024/04/16 01:57:35;;;;;;;8.00;2.50;;;;;;;;;;5582088;25;20049;-63
2024/04/16 02:00:04;;;;;;;5.50;2.17;;;;;;;;;;5582496;25;20385;-62
2024/04/16 02:02:31;;;;;;;7.27;2.00;;;;;;;;;;5598431;25;20027;-62
2024/04/16 02:05:00;;;;;;;7.30;2.30;;;;;;;;;;5581450;25;20032;-62
2024/04/16 02:07:27;;;;;;;;;;;;;;;;;;5575137;25;20543;-62
2024/04/16 02:09:55;;;;;;;7.70;2.35;;;;;;;;;;5583401;25;19929;-62
2024/04/16 02:12:22;;;;;;;6.33;1.87;;;;;;;;;;5578297;25;20040;-62
2024/04/16 02:14:53;;;;;;;6.65;2.75;;;;;;;;;;5576018;25;20036;-62
2024/04/16 02:17:20;;;;;;;5.80;1.80;;;;;;;;;;5574740;25;20033;-61
2024/04/16 02:19:49;;;;;;;7.70;2.13;;;;;;;;;;5548034;25;20038;-61
2024/04/16 02:22:15;;;;;;;5.53;1.85;;;;;;;;;;5562072;25;20025;-61
2024/04/16 02:24:44;;;;;;;4.88;1.75;;;;;;;;;;5547430;25;20033;-61
2024/04/16 02:27:10;;;;;;;4.47;2.10;;;;;;;;;;5573041;25;20023;-62
2024/04/16 02:29:39;;;;;;;5.32;2.20;;;;;;;;;;5562608;25;20498;-61
2024/04/16 02:32:08;;;;;;;5.03;2.05;;;;;;;;;;5563807;25;20021;-61
2024/04/16 02:34:37;;;;;;;5.78;1.88;;;;;;;;;;5547721;25;20021;-61
2024/04/16 02:37:03;;;;;;;3.00;1.77;;;;;;;;;;5566890;25;20501;-61
2024/04/16 02:39:32;;;;;;;5.38;1.77;;;;;;;;;;5573038;25;20375;-61
2024/04/16 02:41:59;;;;;;;7.80;1.95;;;;;;;;;;5573256;25;20041;-61
2024/04/16 02:44:27;;;;;;;5.72;2.15;;;;;;;;;;5580830;25;20036;-61
2024/04/16 02:46:53;;;;;;;7.63;2.17;;;;;;;;;;5571141;25;20024;-61
2024/04/16 02:49:25;;;;;;;3.97;1.88;;;;;;;;;;5570065;25;20024;-61
2024/04/16 02:51:51;;;;;;;6.60;2.25;;;;;;;;;;5584515;25;20025;-61
2024/04/16 02:54:20;;;;;;;6.45;1.80;;;;;;;;;;5575359;25;20505;-60
2024/04/16 02:56:46;;;;;;;7.00;2.45;;;;;;;;;;5582707;25;20020;-61
2024/04/16 02:59:14;;;;;;;6.18;2.35;;;;;;;;;;5574854;25;20513;-61
2024/04/16 03:01:40;;;;;;;6.22;2.88;;;;;;;;;;5562558;25;20036;-61
2024/04/16 03:04:09;;;;;;;5.28;1.70;;;;;;;;;;5561630;25;20032;-60
2024/04/16 03:06:38;;;;;;;4.93;2.08;;;;;;;;;;5564771;25;20052;-60
2024/04/16 03:09:07;;;;;;;5.20;2.40;;;;;;;;;;5568812;25;20378;-60
2024/04/16 03:11:33;;;;;;;5.72;2.45;;;;;;;;;;5569849;25;20033;-60
2024/04/16 03:14:02;;;;;;;7.40;2.30;;;;;;;;;;5575867;25;20485;-61
2024/04/16 03:16:28;;;;;;;5.32;2.50;;;;;;;;;;5583068;25;20033;-61
2024/04/16 03:18:58;;;;;;;7.68;2.60;;;;;;;;;;5574207;25;20540;-60
2024/04/16 03:21:24;;;;;;;5.28;2.20;;;;;;;;;;5569854;25;20032;-60
2024/04/16 03:23:56;;;;;;;5.03;2.10;;;;;;;;;;5575848;25;20498;-60
2024/04/16 03:26:22;;;;;;;5.85;2.03;;;;;;;;;;5570487;25;20033;-60
2024/04/16 03:28:51;;;;;;;4.78;2.10;;;;;;;;;;5566570;25;20415;-60
2024/04/16 03:31:17;;;;;;;7.32;2.55;;;;;;;;;;5562823;25;20037;-60
2024/04/16 03:33:46;;;;;;;6.00;2.10;;;;;;;;;;5563706;25;20514;-60
2024/04/16 03:36:12;;;;;;;5.15;2.28;;;;;;;;;;5566421;25;20032;-60
2024/04/16 03:38:41;;;;;;;5.97;2.47;;;;;;;;;;5580723;25;20028;-60
2024/04/16 03:41:12;;;;;;;8.25;2.58;;;;;;;;;;5573692;25;20505;-60
2024/04/16 03:43:41;;;;;;;7.65;2.50;;;;;;;;;;5591871;25;20383;-60
2024/04/16 03:46:07;;;;;;;11.90;3.10;;;;;;;;;;5603529;25;20020;-60
2024/04/16 03:48:36;;;;;;;8.70;3.40;;;;;;;;;;5603028;25;20036;-59
2024/04/16 03:51:02;;;;;;;15.07;4.30;;;;;;;;;;5590406;25;20127;-60
2024/04/16 03:53:30;;;;;;;14.45;4.35;;;;;;;;;;5566858;25;20025;-61
2024/04/16 03:55:59;;;;;;;16.15;6.15;;;;;;;;;;5565391;25;20028;-63
2024/04/16 03:58:33;;;;;;;11.77;5.33;;;;;;;;;;5580478;25;20373;-64
2024/04/16 04:01:07;;;;;;;12.38;5.47;;;;;;;;;;5568976;25;20024;-64
2024/04/16 04:03:38;;;;;;;13.30;5.88;;;;;;;;;;5581720;25;20039;-65
2024/04/16 04:06:07;;;;;;;17.40;6.90;;;;;;;;;;5579125;25;20382;-65
2024/04/16 04:08:33;;;;;;;15.27;6.65;;;;;;;;;;5566781;25;20028;-65
2024/04/16 04:11:02;;;;;;;15.10;7.50;;;;;;;;;;5572129;25;20023;-65
2024/04/16 04:13:32;;;;;;;15.57;6.93;;;;;;;;;;5591363;25;20028;-65
2024/04/16 04:16:00;;;;;;;12.45;5.93;;;;;;;;;;5593055;25;20035;-65
2024/04/16 04:18:26;;;;;;;14.38;7.10;;;;;;;;;;5580876;25;20029;-64
2024/04/16 04:20:55;;;;;;;11.57;6.53;;;;;;;;;;5580601;25;20036;-64
2024/04/16 04:23:21;;;;;;;12.68;6.35;;;;;;;;;;5582860;25;20034;-64
2024/04/16 04:25:50;;;;;;;17.75;8.00;;;;;;;;;;5569891;25;20032;-64
2024/04/16 04:28:16;;;;;;;12.25;5.65;;;;;;;;;;5566693;25;20029;-64
2024/04/16 04:30:51;;;;;;;14.02;6.88;;;;;;;;;;5602616;25;20390;-64
2024/04/16 04:33:17;;;;;;;11.90;6.65;;;;;;;;;;5603361;25;20489;-64
2024/04/16 04:35:45;;;;;;;10.57;6.30;;;;;;;;;;5601751;25;20040;-63
2024/04/16 04:38:11;;;;;;;12.00;6.85;;;;;;;;;;5583193;25;20490;-63
2024/04/16 04:40:40;;;;;;;12.13;5.80;;;;;;;;;;5563848;25;20029;-63
2024/04/16 04:43:06;;;;;;;10.02;5.43;;;;;;;;;;5564657;25;20024;-63
2024/04/16 04:45:35;;;;;;;9.05;6.22;;;;;;;;;;5563042;25;20028;-63
2024/04/16 04:48:04;;;;;;;13.45;6.28;;;;;;;;;;5564654;25;20021;-63
2024/04/16 04:50:33;;;;;;;10.02;5.30;;;;;;;;;;5561529;25;20032;-63
2024/04/16 04:53:00;;;;;;;10.80;5.80;;;;;;;;;;5575668;25;20021;-63
2024/04/16 04:55:29;;;;;;;9.95;5.97;;;;;;;;;;5548615;25;20021;-63
2024/04/16 04:57:56;;;;;;;10.63;5.20;;;;;;;;;;5577704;25;20020;-63
2024/04/16 05:00:25;;;;;;;10.30;5.50;;;;;;;;;;5581640;25;20408;-63
2024/04/16 05:02:51;;;;;;;10.45;4.72;;;;;;;;;;5569366;25;20029;-63
2024/04/16 05:05:22;;;;;;;11.43;4.88;;;;;;;;;;5583310;25;20020;-60
2024/04/16 05:07:48;;;;;;;11.25;5.10;;;;;;;;;;5564160;25;20033;-60
2024/04/16 05:10:17;;;;;;;8.80;4.72;;;;;;;;;;5554791;25;20040;-60
2024/04/16 05:12:46;;;;;;;10.25;4.40;;;;;;;;;;5571191;25;20365;-60
2024/04/16 05:15:12;;;;;;;8.13;4.60;;;;;;;;;;5548019;25;20041;-60
2024/04/16 05:17:41;;;;;;;7.20;3.70;;;;;;;;;;5563506;25;20365;-60
2024/04/16 05:20:07;;;;;;;6.07;3.80;;;;;;;;;;5549255;25;20041;-60
2024/04/16 05:22:39;;;;;;;7.15;4.35;;;;;;;;;;5564315;25;20020;-60
2024/04/16 05:25:06;;;;;;;4.88;3.40;;;;;;;;;;5564124;25;20112;-60
2024/04/16 05:27:35;;;;;;;6.50;3.85;;;;;;;;;;5575189;25;20032;-61
2024/04/16 05:30:01;;;;;;;5.00;3.30;;;;;;;;;;5560828;25;20021;-61
2024/04/16 05:32:29;;;;;;;5.75;3.40;;;;;;;;;;5575379;25;20056;-60
2024/04/16 05:34:56;;;;;;;4.95;3.33;;;;;;;;;;5580540;25;20035;-61
2024/04/16 05:37:24;;;;;;;6.00;3.40;;;;;;;;;;5578283;25;20450;-59
2024/04/16 05:39:53;;;;;;;4.63;3.38;;;;;;;;;;5583267;25;20032;-60
2024/04/16 05:42:22;;;;;;;4.47;3.20;;;;;;;;;;5591880;25;20473;-60
2024/04/16 05:44:48;;;;;;;5.97;3.35;;;;;;;;;;5585870;25;20029;-60
2024/04/16 05:47:16;;;;;;;7.20;3.90;;;;;;;;;;5601068;25;20036;-60
2024/04/16 05:49:43;;;;;;;6.03;4.18;;;;;;;;;;5585779;25;20029;-60
2024/04/16 05:52:11;;;;;;;9.23;3.83;;;;;;;;;;5574557;25;20032;-60
2024/04/16 05:54:37;;;;;;;8.70;4.50;;;;;;;;;;5547795;25;20029;-59
2024/04/16 05:57:09;;;;;;;8.20;4.47;;;;;;;;;;5560908;25;20385;-60
2024/04/16 05:59:35;;;;;;;7.75;3.80;;;;;;;;;;5548103;25;20029;-60
2024/04/16 06:02:04;;;;;;;5.22;3.63;;;;;;;;;;5558081;25;20032;-60
2024/04/16 06:04:30;;;;;;;6.32;3.53;;;;;;;;;;5579397;25;20044;-61
2024/04/16 06:06:59;;;;;;;8.35;4.10;;;;;;;;;;5599464;25;20032;-60
2024/04/16 06:09:25;;;;;;;7.57;3.50;;;;;;;;;;5588451;25;20029;-60
2024/04/16 06:11:54;;;;;;;6.45;3.40;;;;;;;;;;5597554;25;20394;-61
2024/04/16 06:14:23;;;;;;;7.20;3.35;;;;;;;;;;5589332;25;20374;-61
2024/04/16 06:16:51;;;;;;;7.40;3.42;;;;;;;;;;5558649;25;20020;-60
2024/04/16 06:19:18;;;;;;;8.95;3.63;;;;;;;;;;5552339;25;20037;-60
2024/04/16 06:21:46;;;;;;;6.38;3.13;;;;;;;;;;5564281;25;20037;-60
2024/04/16 06:24:12;;;;;;;6.20;3.05;;;;;;;;;;5553501;25;20025;-60
2024/04/16 06:26:41;;;;;;;6.13;2.75;;;;;;;;;;5556185;25;20033;-60
2024/04/16 06:29:07;;;;;;;5.88;3.03;;;;;;;;;;5554632;25;20047;-61
2024/04/16 06:31:38;;;;;;;8.30;3.00;;;;;;;;;;5563097;25;20029;-60
2024/04/16 06:34:05;;;;;;;5.40;3.20;;;;;;;;;;5593262;25;20381;-60
2024/04/16 06:36:34;;;;;;;6.70;3.65;;;;;;;;;;5576890;25;20040;-60
2024/04/16 06:39:00;;;;;;;6.47;3.42;;;;;;;;;;5570810;25;20028;-60
2024/04/16 06:41:28;;;;;;;7.88;3.63;;;;;;;;;;5574220;25;20461;-60
2024/04/16 06:43:54;;;;;;;7.97;4.40;;;;;;;;;;5595829;25;20024;-60
2024/04/16 06:46:23;;;;;;;7.82;4.38;;;;;;;;;;5567178;25;20512;-60
2024/04/16 06:48:52;;;;;;;9.02;4.82;;;;;;;;;;5560019;25;20373;-61
2024/04/16 06:51:21;;;;;;;10.65;4.93;;;;;;;;;;5555341;25;20038;-61
2024/04/16 06:53:47;;;;;;;7.25;5.18;;;;;;;;;;5567257;25;20028;-60
2024/04/16 06:56:16;;;;;;;6.13;4.57;;;;;;;;;;5564685;25;20040;-60
2024/04/16 06:58:42;;;;;;;6.45;5.18;;;;;;;;;;5572303;25;20035;-60
2024/04/16 07:01:11;;;;;;;12.20;7.50;;;;;;;;;;5581295;25;20029;-61
2024/04/16 07:03:37;;;;;;;10.90;6.77;;;;;;;;;;5561993;25;20033;-60
2024/04/16 07:06:09;;;;;;;11.27;6.70;;;;;;;;;;5579746;25;20385;-60
2024/04/16 07:08:35;;;;;;;12.57;6.70;;;;;;;;;;5567030;25;20020;-60
2024/04/16 07:11:04;;;;;;;15.30;8.63;;;;;;;;;;5569678;25;20402;-60
2024/04/16 07:13:30;;;;;;;56.97;11.43;;;;;;;;;;5572379;25;20485;-61
2024/04/16 07:15:58;;;;;;;83.10;12.35;;;;;;;;;;5590336;25;20037;-65
2024/04/16 07:18:24;;;;;;;22.02;8.85;;;;;;;;;;5574868;25;20380;-69
2024/04/16 07:20:54;;;;;;;16.30;8.75;;;;;;;;;;5569184;25;20037;-71
2024/04/16 07:23:22;;;;;;;16.75;8.65;;;;;;;;;;5570184;25;20367;-74
2024/04/16 07:25:51;;;;;;;11.02;7.10;;;;;;;;;;5584957;25;20024;-71
2024/04/16 07:28:17;;;;;;;15.00;8.10;;;;;;;;;;5587673;25;20030;-73
2024/04/16 07:30:46;;;;;;;12.10;6.75;;;;;;;;;;5593551;25;20023;-72
2024/04/16 07:33:14;;;;;;;12.70;6.18;;;;;;;;;;5593925;25;20032;-72
2024/04/16 07:35:47;;;;;;;7.82;4.85;;;;;;;;;;5581710;25;20478;-73
2024/04/16 07:38:16;;;;;;;7.72;4.15;;;;;;;;;;5586893;25;20379;-72
2024/04/16 07:40:55;;;;;;;9.07;5.77;;;;;;;;;;5580045;25;20474;-72
2024/04/16 07:43:23;;;;;;;5.70;4.00;;;;;;;;;;5591835;25;20036;-73
2024/04/16 07:45:52;;;;;;;6.70;4.15;;;;;;;;;;5582457;25;20025;-73
2024/04/16 07:48:18;;;;;;;8.95;4.45;;;;;;;;;;5571989;25;20033;-72
2024/04/16 07:50:48;;;;;;;9.32;5.40;;;;;;;;;;5571040;25;20383;-72
2024/04/16 07:53:14;;;;;;;8.50;5.28;;;;;;;;;;5573289;25;20483;-73
2024/04/16 07:55:43;;;;;;;6.85;4.25;;;;;;;;;;5569975;25;20033;-74
2024/04/16 07:58:12;;;;;;;4.97;3.85;;;;;;;;;;5584659;25;20032;-74
2024/04/16 08:00:40;;;;;;;7.70;4.40;;;;;;;;;;5593919;25;20024;-74
2024/04/16 08:03:07;;;;;;;12.65;5.07;;;;;;;;;;5582755;25;20033;-72
2024/04/16 08:05:36;;;;;;;12.93;5.70;;;;;;;;;;5589845;25;20480;-72
2024/04/16 08:08:02;;;;;;;9.60;4.90;;;;;;;;;;5607258;25;20024;-72
2024/04/16 08:10:31;;;;;;;11.10;5.30;;;;;;;;;;5606245;25;20032;-72
2024/04/16 08:12:57;;;;;;;8.77;4.03;;;;;;;;;;5606900;25;20019;-72
2024/04/16 08:15:28;;;;;;;7.28;4.00;;;;;;;;;;5573521;25;20037;-72
2024/04/16 08:17:54;;;;;;;7.75;3.97;;;;;;;;;;5594108;25;20023;-71
2024/04/16 08:20:23;;;;;;;10.65;4.55;;;;;;;;;;5574859;25;20044;-70
2024/04/16 08:22:49;;;;;;;7.45;4.35;;;;;;;;;;5591295;25;20031;-70
2024/04/16 08:25:18;;;;;;;5.28;2.95;;;;;;;;;;5601854;25;20036;-70
2024/04/16 08:27:44;;;;;;;4.57;2.67;;;;;;;;;;5603064;25;20043;-70
2024/04/16 08:30:14;;;;;;;4.35;2.38;;;;;;;;;;5596912;25;20036;-70
2024/04/16 08:32:44;;;;;;;4.82;2.53;;;;;;;;;;5568916;25;20025;-71
2024/04/16 08:35:13;;;;;;;5.30;2.90;;;;;;;;;;5576278;25;20107;-70
2024/04/16 08:37:40;;;;;;;4.30;2.70;;;;;;;;;;5564368;25;20043;-69
2024/04/16 08:40:11;;;;;;;11.50;3.42;;;;;;;;;;5563509;25;20381;-70
2024/04/16 08:42:37;;;;;;;10.60;5.00;;;;;;;;;;5564420;25;20369;-69
2024/04/16 08:45:06;;;;;;;14.98;4.65;;;;;;;;;;5563564;25;20028;-69
2024/04/16 08:47:33;;;;;;;10.32;4.88;;;;;;;;;;5580025;25;20048;-70
2024/04/16 08:50:04;;;;;;;13.93;6.30;;;;;;;;;;5577357;25;20037;-69
2024/04/16 08:52:32;;;;;;;17.30;7.38;;;;;;;;;;5575376;25;20031;-69
2024/04/16 08:55:01;;;;;;;13.38;7.15;;;;;;;;;;5581447;25;20032;-69
2024/04/16 08:57:27;;;;;;;22.02;8.65;;;;;;;;;;5581003;25;20033;-70
2024/04/16 08:59:56;;;;;;;19.58;9.55;;;;;;;;;;5564506;25;20377;-71
2024/04/16 09:02:23;;;;;;;16.80;9.10;;;;;;;;;;5564021;25;20532;-72
2024/04/16 09:04:53;;;;;;;24.27;11.57;;;;;;;;;;5577258;25;20028;-70
2024/04/16 09:07:22;;;;;;;17.20;10.50;;;;;;;;;;5580305;25;20347;-70
2024/04/16 09:09:50;;;;;;;19.23;10.30;;;;;;;;;;5574232;25;20026;-70
2024/04/16 09:12:17;;;;;;;24.38;12.52;;;;;;;;;;5585150;25;20445;-70
2024/04/16 09:14:45;;;;;;;23.45;11.95;;;;;;;;;;5563009;25;20382;-70
2024/04/16 09:17:13;;;;;;;25.40;12.70;;;;;;;;;;5563895;25;20020;-71
2024/04/16 09:19:42;;;;;;;26.48;12.13;;;;;;;;;;5564499;25;20485;-69
2024/04/16 09:22:08;;;;;;;20.05;11.30;;;;;;;;;;5575175;25;20036;-69
2024/04/16 09:24:39;;;;;;;43.00;15.65;;;;;;;;;;5583263;25;20030;-70
2024/04/16 09:27:08;;;;;;;24.50;14.00;;;;;;;;;;5579990;25;20037;-69
2024/04/16 09:29:37;;;;;;;25.75;14.93;;;;;;;;;;5587706;25;20024;-69
2024/04/16 09:32:03;;;;;;;38.05;17.75;;;;;;;;;;5566146;25;20032;-70
2024/04/16 09:34:32;;;;;;;24.10;13.40;;;;;;;;;;5586353;25;20037;-68
2024/04/16 09:36:59;;;;;;;32.45;16.13;;;;;;;;;;5598335;25;20028;-69
2024/04/16 09:39:28;;;;;;;29.70;15.32;;;;;;;;;;5568970;25;20029;-69
2024/04/16 09:41:57;;;;;;;26.40;14.97;;;;;;;;;;5590885;25;20024;-69
2024/04/16 09:44:27;;;;;;;18.40;11.55;;;;;;;;;;5563012;25;20032;-69
2024/04/16 09:46:54;;;;;;;18.80;13.27;;;;;;;;;;5589493;25;20028;-70
2024/04/16 09:49:23;;;;;;;18.55;12.68;;;;;;;;;;5567006;25;20033;-69
2024/04/16 09:51:49;;;;;;;22.73;14.10;;;;;;;;;;5560521;25;20478;-70
2024/04/16 09:54:18;;;;;;;19.05;11.55;;;;;;;;;;5553106;25;20029;-69
2024/04/16 09:56:45;;;;;;;14.57;8.07;;;;;;;;;;5559116;25;20029;-69
2024/04/16 09:59:17;;;;;;;11.15;7.72;;;;;;;;;;5570944;25;20491;-69
2024/04/16 10:01:44;;;;;;;12.15;6.85;;;;;;;;;;5580010;25;20485;-69
2024/04/16 10:04:14;;;;;;;13.00;6.97;;;;;;;;;;5578862;25;20036;-69
2024/04/16 10:06:40;;;;;;;9.93;5.13;;;;;;;;;;5563482;25;20033;-69
2024/04/16 10:09:09;;;;;;;10.95;5.60;;;;;;;;;;5555286;25;20025;-69
2024/04/16 10:11:36;;;;;;;10.70;6.30;;;;;;;;;;5557581;25;20033;-69
2024/04/16 10:14:04;;;;;;;9.52;6.40;;;;;;;;;;5563175;25;20022;-69
2024/04/16 10:16:33;;;;;;;15.30;8.65;;;;;;;;;;5569367;25;20032;-69
2024/04/16 10:19:06;;;;;;;11.63;7.68;;;;;;;;;;5564916;25;20017;-69
2024/04/16 10:21:41;;;;;;;16.75;9.65;;;;;;;;;;5565587;25;20028;-68
2024/04/16 10:24:07;;;;;;;14.05;8.88;;;;;;;;;;5562737;25;20021;-69
2024/04/16 10:26:37;;;;;;;15.38;8.32;;;;;;;;;;5573659;25;20029;-69
2024/04/16 10:29:03;;;;;;;;;;;;;;;;;;5563375;25;20106;-67
2024/04/16 10:31:33;;;;;;;17.10;9.40;;;;;;;;;;5563377;25;19923;-68
2024/04/16 10:34:02;;;;;;;19.65;10.95;;;;;;;;;;5562692;25;20385;-69
2024/04/16 10:36:31;;;;;;;17.60;10.87;;;;;;;;;;5565124;25;20032;-69
2024/04/16 10:38:58;;;;;;;13.18;8.55;;;;;;;;;;5597212;25;20422;-69
2024/04/16 10:41:30;;;;;;;13.10;8.40;;;;;;;;;;5596251;25;20035;-69
2024/04/16 10:43:56;;;;;;;18.10;7.55;;;;;;;;;;5561536;25;20028;-69
2024/04/16 10:46:25;;;;;;;14.68;8.50;;;;;;;;;;5584860;25;20036;-69
2024/04/16 10:48:52;;;;;;;11.18;6.80;;;;;;;;;;5592784;25;20044;-69
2024/04/16 10:51:23;;;;;;;12.75;7.60;;;;;;;;;;5599770;25;20035;-68
2024/04/16 10:53:49;;;;;;;10.45;5.28;;;;;;;;;;5600563;25;20023;-68
2024/04/16 10:56:18;;;;;;;9.38;4.97;;;;;;;;;;5599992;25;20032;-68
2024/04/16 10:58:45;;;;;;;9.27;4.70;;;;;;;;;;5579830;25;20387;-68
2024/04/16 11:01:14;;;;;;;7.30;4.47;;;;;;;;;;5565123;25;20397;-68
2024/04/16 11:03:40;;;;;;;4.20;2.35;;;;;;;;;;5562485;25;20494;-68
2024/04/16 11:06:09;;;;;;;7.75;3.33;;;;;;;;;;5562008;25;20024;-68
2024/04/16 11:08:39;;;;;;;5.07;2.53;;;;;;;;;;5573933;25;20020;-67
2024/04/16 11:11:08;;;;;;;4.18;1.60;;;;;;;;;;5577872;25;20024;-66
2024/04/16 11:13:38;;;;;;;4.22;1.48;;;;;;;;;;5562585;25;20029;-66
2024/04/16 11:16:04;;;;;;;3.88;1.30;;;;;;;;;;5562490;25;20028;-66
2024/04/16 11:18:33;;;;;;;5.00;1.50;;;;;;;;;;5569136;25;20029;-66
2024/04/16 11:20:59;;;;;;;5.28;1.65;;;;;;;;;;5593189;25;20024;-67
2024/04/16 11:23:28;;;;;;;3.38;1.67;;;;;;;;;;5598853;25;20024;-67
2024/04/16 11:25:59;;;;;;;5.30;2.00;;;;;;;;;;5594697;25;20035;-68
2024/04/16 11:28:28;;;;;;;4.90;1.60;;;;;;;;;;5575419;25;20036;-69
2024/04/16 11:30:54;;;;;;;4.63;1.42;;;;;;;;;;5577027;25;20028;-68
2024/04/16 11:33:23;;;;;;;3.05;1.58;;;;;;;;;;5574119;25;20376;-69
2024/04/16 11:35:50;;;;;;;3.58;1.70;;;;;;;;;;5582510;25;20053;-68
2024/04/16 11:38:20;;;;;;;5.32;1.65;;;;;;;;;;5572384;25;20048;-68
2024/04/16 11:40:46;;;;;;;4.25;1.50;;;;;;;;;;5567344;25;20482;-69
2024/04/16 11:43:18;;;;;;;2.05;1.25;;;;;;;;;;5572843;25;20031;-69
2024/04/16 11:45:45;;;;;;;3.70;1.30;;;;;;;;;;5583689;25;20040;-68
2024/04/16 11:48:14;;;;;;;1.90;1.10;;;;;;;;;;5580838;25;20024;-68
2024/04/16 11:50:40;;;;;;;3.88;1.10;;;;;;;;;;5562005;25;20472;-66
2024/04/16 11:53:09;;;;;;;2.88;1.20;;;;;;;;;;5582111;25;20032;-66
2024/04/16 11:55:35;;;;;;;3.47;1.35;;;;;;;;;;5563659;25;20032;-65
2024/04/16 11:58:04;;;;;;;4.05;0.90;;;;;;;;;;5556511;25;20029;-64
2024/04/16 12:00:32;;;;;;;2.55;0.90;;;;;;;;;;5551968;25;20033;-64
2024/04/16 12:03:03;;;;;;;3.42;1.10;;;;;;;;;;5577634;25;20048;-64
2024/04/16 12:05:29;;;;;;;2.70;1.27;;;;;;;;;;5568258;25;20377;-64
2024/04/16 12:07:58;;;;;;;2.80;1.38;;;;;;;;;;5564432;25;20040;-64
2024/04/16 12:10:24;;;;;;;3.67;1.45;;;;;;;;;;5572443;25;20032;-65
2024/04/16 12:12:53;;;;;;;1.95;1.00;;;;;;;;;;5588301;25;20513;-65
2024/04/16 12:15:19;;;;;;;2.80;1.37;;;;;;;;;;5573788;25;20037;-64
2024/04/16 12:17:50;;;;;;;1.90;1.27;;;;;;;;;;5601921;25;20028;-63
2024/04/16 12:20:16;;;;;;;2.15;1.73;;;;;;;;;;5571253;25;20377;-64
2024/04/16 12:22:45;;;;;;;2.05;0.90;;;;;;;;;;5578922;25;20374;-63
2024/04/16 12:25:11;;;;;;;1.47;0.90;;;;;;;;;;5568822;25;20037;-64
2024/04/16 12:27:40;;;;;;;1.83;0.80;;;;;;;;;;5562814;25;20376;-64
2024/04/16 12:30:07;;;;;;;1.83;1.20;;;;;;;;;;5554092;25;20028;-64
2024/04/16 12:32:35;;;;;;;2.58;2.10;;;;;;;;;;5569592;25;20024;-63
2024/04/16 12:35:04;;;;;;;1.42;1.00;;;;;;;;;;5559794;25;20025;-64
2024/04/16 12:37:33;;;;;;;3.03;1.67;;;;;;;;;;5571468;25;20385;-63
2024/04/16 12:39:59;;;;;;;2.03;1.40;;;;;;;;;;5549034;25;20032;-64
2024/04/16 12:42:28;;;;;;;2.53;1.38;;;;;;;;;;5577526;25;20027;-64
2024/04/16 12:44:55;;;;;;;3.50;1.27;;;;;;;;;;5580499;25;20040;-64
2024/04/16 12:47:24;;;;;;;2.00;1.48;;;;;;;;;;5577641;25;20024;-64
2024/04/16 12:49:52;;;;;;;2.20;1.10;;;;;;;;;;5556918;25;20029;-63
2024/04/16 12:52:23;;;;;;;2.88;1.10;;;;;;;;;;5564906;25;20478;-63
2024/04/16 12:54:49;;;;;;;1.70;1.13;;;;;;;;;;5550623;25;20025;-64
2024/04/16 12:57:18;;;;;;;1.55;1.00;;;;;;;;;;5579888;25;20497;-63
2024/04/16 12:59:44;;;;;;;2.75;1.15;;;;;;;;;;5548819;25;20033;-63
2024/04/16 13:02:13;;;;;;;2.00;0.80;;;;;;;;;;5547577;25;20029;-62
2024/04/16 13:04:39;;;;;;;1.80;1.20;;;;;;;;;;5563975;25;20037;-62
2024/04/16 13:07:08;;;;;;;2.33;1.20;;;;;;;;;;5556748;25;20106;-62
2024/04/16 13:09:36;;;;;;;2.40;1.63;;;;;;;;;;5558415;25;20025;-62
2024/04/16 13:12:05;;;;;;;1.98;1.30;;;;;;;;;;5563433;25;20025;-61
2024/04/16 13:14:31;;;;;;;4.35;1.58;;;;;;;;;;5563810;25;20486;-61
2024/04/16 13:17:00;;;;;;;2.25;1.35;;;;;;;;;;5561871;25;20036;-61
2024/04/16 13:19:26;;;;;;;3.03;1.67;;;;;;;;;;5559515;25;20364;-61
2024/04/16 13:21:55;;;;;;;1.92;1.27;;;;;;;;;;5552138;25;20029;-62
2024/04/16 13:24:21;;;;;;;2.20;1.60;;;;;;;;;;5561148;25;20478;-62
2024/04/16 13:26:52;;;;;;;2.40;1.40;;;;;;;;;;5563424;25;20365;-61
2024/04/16 13:29:19;;;;;;;1.80;1.30;;;;;;;;;;5538306;25;20034;-61
2024/04/16 13:31:48;;;;;;;3.35;2.13;;;;;;;;;;5526537;26;20021;-61
2024/04/16 13:34:14;;;;;;;4.10;2.45;;;;;;;;;;5526569;26;20029;-61
2024/04/16 13:36:43;;;;;;;2.63;2.40;;;;;;;;;;5525824;26;20025;-61
2024/04/16 13:39:09;;;;;;;4.90;3.50;;;;;;;;;;5554640;25;20020;-62
2024/04/16 13:41:38;;;;;;;4.75;3.20;;;;;;;;;;5572849;25;20023;-61
2024/04/16 13:44:07;;;;;;;3.43;3.13;;;;;;;;;;5568344;25;20024;-63
2024/04/16 13:46:35;;;;;;;4.10;3.45;;;;;;;;;;5569097;25;20516;-61
2024/04/16 13:49:04;;;;;;;4.07;2.87;;;;;;;;;;5572461;25;20406;-60
2024/04/16 13:51:30;;;;;;;4.05;2.92;;;;;;;;;;5559777;25;20024;-68
2024/04/16 13:53:59;;;;;;;3.30;2.80;;;;;;;;;;5563309;25;20036;-67
2024/04/16 13:56:25;;;;;;;2.92;2.60;;;;;;;;;;5556653;25;20042;-67
2024/04/16 13:58:54;;;;;;;2.90;2.63;;;;;;;;;;5566764;25;20040;-67
2024/04/16 14:01:22;;;;;;;3.08;2.72;;;;;;;;;;5556153;25;20017;-67
2024/04/16 14:03:51;;;;;;;3.30;3.00;;;;;;;;;;5543753;25;20048;-67
2024/04/16 14:06:18;;;;;;;3.20;2.90;;;;;;;;;;5529992;25;20348;-67
2024/04/16 14:08:46;;;;;;;3.40;3.10;;;;;;;;;;5525255;26;20034;-67
2024/04/16 14:11:12;;;;;;;4.47;3.22;;;;;;;;;;5525812;25;20104;-67
2024/04/16 14:13:41;;;;;;;3.05;2.75;;;;;;;;;;5525305;25;20021;-67
2024/04/16 14:16:07;;;;;;;4.03;3.22;;;;;;;;;;5527405;25;20048;-66
2024/04/16 14:18:39;;;;;;;3.72;3.20;;;;;;;;;;5537955;25;20033;-67
2024/04/16 14:21:05;;;;;;;4.47;3.50;;;;;;;;;;5525141;25;20487;-68
2024/04/16 14:23:35;;;;;;;3.75;3.22;;;;;;;;;;5525505;26;20025;-67
2024/04/16 14:26:01;;;;;;;4.43;3.50;;;;;;;;;;5526140;25;20030;-65
2024/04/16 14:28:30;;;;;;;3.53;3.17;;;;;;;;;;5535000;25;20029;-67
2024/04/16 14:30:56;;;;;;;3.80;3.25;;;;;;;;;;5542680;25;20029;-67
2024/04/16 14:33:25;;;;;;;3.90;3.50;;;;;;;;;;5540296;25;20028;-66
2024/04/16 14:35:58;;;;;;;4.13;3.42;;;;;;;;;;5525324;26;20034;-67
2024/04/16 14:38:27;;;;;;;3.90;3.33;;;;;;;;;;5525081;26;20030;-67
2024/04/16 14:40:53;;;;;;;3.50;2.87;;;;;;;;;;5525441;26;20029;-67
2024/04/16 14:43:22;;;;;;;3.55;3.20;;;;;;;;;;5524743;25;20494;-66